Time;durP1;ratioP1;P1;durP2;ratioP2;P2;SDS_P1;SDS_P2;PMS_P1;PMS_P2;Temp;Humidity;BMP_temperature;BMP_pressure;BME280_temperature;BME280_humidity;BME280_pressure;Samples;Min_cycle;Max_cycle;Signal;HPM_P1;HPM_P2
2022/10/09 00:00:45;;;;;;;;;;;8.40;81.60;;;;;;5042181;28;20051;-73
2022/10/09 00:03:12;;;;;;;;;;;8.40;81.70;;;;;;5036328;28;20414;-73
2022/10/09 00:05:39;;;;;;;;;;;8.40;81.70;;;;;;5029803;28;20341;-73
2022/10/09 00:08:06;;;;;;;;;;;8.40;81.80;;;;;;5045625;28;19929;-74
2022/10/09 00:10:48;;;;;;;;;;;8.30;81.80;;;;;;5041814;28;19928;-73
2022/10/09 00:13:15;;;;;;;;;;;8.30;81.70;;;;;;5032167;28;19935;-74
2022/10/09 00:15:43;;;;;;;;;;;8.30;81.70;;;;;;5044480;28;19928;-73
2022/10/09 00:18:10;;;;;;;;;;;8.20;81.60;;;;;;5045558;28;20374;-71
2022/10/09 00:20:37;;;;;;;;;;;8.20;81.60;;;;;;5041591;28;19924;-74
2022/10/09 00:23:05;;;;;;;;;;;8.10;81.80;;;;;;5044966;28;20980;-74
2022/10/09 00:25:31;;;;;;;;;;;8.10;81.70;;;;;;5035044;28;19940;-73
2022/10/09 00:28:00;;;;;;;;;;;8.10;81.70;;;;;;5042014;28;20529;-73
2022/10/09 00:30:27;;;;;;;;;;;8.10;81.90;;;;;;5043143;28;20302;-73
2022/10/09 00:32:54;;;;;;;;;;;8.20;82.20;;;;;;5043297;28;19929;-72
2022/10/09 00:35:21;;;;;;;;;;;8.20;82.30;;;;;;5025031;28;19929;-73
2022/10/09 00:37:48;;;;;;;;;;;8.20;82.40;;;;;;5040302;28;19994;-72
2022/10/09 00:40:15;;;;;;;;;;;8.20;82.70;;;;;;5045094;28;20015;-72
2022/10/09 00:42:44;;;;;;;;;;;8.10;82.90;;;;;;5045555;28;19925;-73
2022/10/09 00:45:17;;;;;;;;;;;8.20;83.10;;;;;;5031115;28;19936;-73
2022/10/09 00:47:46;;;;;;;;;;;8.20;83.10;;;;;;5040901;28;19932;-74
2022/10/09 00:50:15;;;;;;;;;;;8.30;83.00;;;;;;5037148;28;19998;-72
2022/10/09 00:52:43;;;;;;;;;;;8.20;83.20;;;;;;5042183;28;19924;-73
2022/10/09 00:55:13;;;;;;;;;;;8.20;83.40;;;;;;5041931;28;19929;-72
2022/10/09 00:57:41;;;;;;;;;;;8.20;83.30;;;;;;5037150;28;19940;-73
2022/10/09 01:00:15;;;;;;;;;;;8.20;83.20;;;;;;5024977;28;19925;-72
2022/10/09 01:02:43;;;;;;;;;;;8.10;83.10;;;;;;5024793;28;19932;-72
2022/10/09 01:05:12;;;;;;;;;;;8.10;83.00;;;;;;5023928;28;19939;-73
2022/10/09 01:07:45;;;;;;;;;;;8.00;83.00;;;;;;5011891;28;19933;-72
2022/10/09 01:10:21;;;;;;;;;;;8.00;82.80;;;;;;5013900;28;19926;-73
2022/10/09 01:12:54;;;;;;;;;;;8.00;82.50;;;;;;5025506;28;19925;-71
2022/10/09 01:15:24;;;;;;;;;;;8.00;82.30;;;;;;5015292;28;19940;-75
2022/10/09 01:17:57;;;;;;;;;;;7.90;82.20;;;;;;5014055;28;19933;-73
2022/10/09 01:20:39;;;;;;;;;;;7.90;82.00;;;;;;5035665;28;19956;-73
2022/10/09 01:23:21;;;;;;;;;;;7.80;82.10;;;;;;5025202;28;19940;-73
2022/10/09 01:25:57;;;;;;;;;;;7.80;82.10;;;;;;5036566;28;19925;-74
2022/10/09 01:28:27;;;;;;;;;;;7.80;81.90;;;;;;5032525;28;19985;-74
2022/10/09 01:30:55;;;;;;;;;;;7.90;81.80;;;;;;5040436;28;19964;-73
2022/10/09 01:33:22;;;;;;;;;;;7.90;81.70;;;;;;5037982;28;20306;-72
2022/10/09 01:35:51;;;;;;;;;;;8.00;81.70;;;;;;5038665;28;19933;-73
2022/10/09 01:38:18;;;;;;;;;;;7.90;81.80;;;;;;5035228;28;19936;-73
2022/10/09 01:40:44;;;;;;;;;;;7.90;81.70;;;;;;5040571;28;19925;-73
2022/10/09 01:43:11;;;;;;;;;;;7.90;81.70;;;;;;5020120;28;20329;-72
2022/10/09 01:45:40;;;;;;;;;;;7.70;81.70;;;;;;5030688;28;19932;-72
2022/10/09 01:48:13;;;;;;;;;;;7.70;81.80;;;;;;5035336;28;19936;-74
2022/10/09 01:50:43;;;;;;;;;;;7.70;81.80;;;;;;5038897;28;20371;-72
2022/10/09 01:53:22;;;;;;;;;;;7.70;81.70;;;;;;5040780;28;19999;-72
2022/10/09 01:55:57;;;;;;;;;;;7.60;81.80;;;;;;5038081;28;20020;-73
2022/10/09 01:58:30;;;;;;;;;;;7.60;81.70;;;;;;5029605;28;19932;-74
2022/10/09 02:01:01;;;;;;;;;;;7.60;81.60;;;;;;5031894;28;19933;-74
2022/10/09 02:03:32;;;;;;;;;;;7.50;81.60;;;;;;5021692;28;19928;-73
2022/10/09 02:06:03;;;;;;;;;;;7.50;81.50;;;;;;5040599;28;19932;-74
2022/10/09 02:08:30;;;;;;;;;;;7.50;81.50;;;;;;5040148;28;20410;-72
2022/10/09 02:11:01;;;;;;;;;;;7.50;81.20;;;;;;5043625;28;19931;-71
2022/10/09 02:13:28;;;;;;;;;;;7.50;81.20;;;;;;5039791;28;20439;-73
2022/10/09 02:16:00;;;;;;;;;;;7.40;81.40;;;;;;5037369;28;19928;-74
2022/10/09 02:18:31;;;;;;;;;;;7.40;81.60;;;;;;5041003;28;20027;-74
2022/10/09 02:21:06;;;;;;;;;;;7.30;81.80;;;;;;5030663;28;19984;-73
2022/10/09 02:23:34;;;;;;;;;;;7.30;81.90;;;;;;5037467;28;19931;-72
2022/10/09 02:26:01;;;;;;;;;;;7.40;82.00;;;;;;5035309;28;19971;-74
2022/10/09 02:28:31;;;;;;;;;;;7.30;82.00;;;;;;5037426;28;19932;-73
2022/10/09 02:31:04;;;;;;;;;;;7.30;81.90;;;;;;5034147;28;20683;-71
2022/10/09 02:33:32;;;;;;;;;;;7.20;81.90;;;;;;5029366;28;20298;-73
2022/10/09 02:35:59;;;;;;;;;;;7.20;81.90;;;;;;5006423;28;19929;-70
2022/10/09 02:38:26;;;;;;;;;;;7.20;81.90;;;;;;5037739;28;20298;-72
2022/10/09 02:40:56;;;;;;;;;;;7.20;81.70;;;;;;5025330;28;20464;-73
2022/10/09 02:43:24;;;;;;;;;;;7.20;81.40;;;;;;5042362;28;19924;-72
2022/10/09 02:45:51;;;;;;;;;;;7.20;81.10;;;;;;5029615;28;19945;-71
2022/10/09 02:48:19;;;;;;;;;;;7.10;81.10;;;;;;5038786;28;19929;-73
2022/10/09 02:50:48;;;;;;;;;;;7.10;81.10;;;;;;5045599;28;19936;-73
2022/10/09 02:53:15;;;;;;;;;;;7.10;81.10;;;;;;5037288;28;19932;-73
2022/10/09 02:55:46;;;;;;;;;;;7.10;81.10;;;;;;5044731;28;20401;-72
2022/10/09 02:58:13;;;;;;;;;;;7.10;81.10;;;;;;5044339;28;20611;-72
2022/10/09 03:00:42;;;;;;;;;;;7.10;80.80;;;;;;5040873;28;19932;-73
2022/10/09 03:03:09;;;;;;;;;;;7.00;80.90;;;;;;5044825;28;20059;-73
2022/10/09 03:05:36;;;;;;;;;;;7.00;81.00;;;;;;5041860;28;19956;-73
2022/10/09 03:08:07;;;;;;;;;;;7.00;80.80;;;;;;5037254;28;19925;-75
2022/10/09 03:10:36;;;;;;;;;;;6.90;81.00;;;;;;5029571;28;20003;-73
2022/10/09 03:13:03;;;;;;;;;;;6.90;81.10;;;;;;5033182;28;19931;-73
2022/10/09 03:15:33;;;;;;;;;;;7.00;81.10;;;;;;5043726;28;19933;-73
2022/10/09 03:18:01;;;;;;;;;;;6.90;81.10;;;;;;5040537;28;19940;-72
2022/10/09 03:20:29;;;;;;;;;;;6.80;81.10;;;;;;5041949;28;19974;-73
2022/10/09 03:22:55;;;;;;;;;;;6.90;81.10;;;;;;5045017;28;19986;-73
2022/10/09 03:25:23;;;;;;;;;;;6.90;81.10;;;;;;5044416;28;20298;-73
2022/10/09 03:27:50;;;;;;;;;;;6.80;81.10;;;;;;5039017;28;19928;-72
2022/10/09 03:30:17;;;;;;;;;;;6.80;81.20;;;;;;5044962;28;19983;-73
2022/10/09 03:32:43;;;;;;;;;;;6.70;81.30;;;;;;5045320;28;19932;-71
2022/10/09 03:35:11;;;;;;;;;;;6.70;81.20;;;;;;5041825;28;19925;-74
2022/10/09 03:37:37;;;;;;;;;;;6.70;81.30;;;;;;5043683;28;19932;-73
2022/10/09 03:40:05;;;;;;;;;;;6.70;81.40;;;;;;5040468;28;19928;-73
2022/10/09 03:42:33;;;;;;;;;;;6.60;81.30;;;;;;5037552;28;19952;-74
2022/10/09 03:45:03;;;;;;;;;;;6.60;81.40;;;;;;5037171;28;19933;-71
2022/10/09 03:47:30;;;;;;;;;;;6.60;81.50;;;;;;5039591;28;19933;-73
2022/10/09 03:49:56;;;;;;;;;;;6.60;81.50;;;;;;5041814;28;20318;-73
2022/10/09 03:52:23;;;;;;;;;;;6.50;81.50;;;;;;5040262;28;19925;-73
2022/10/09 03:54:50;;;;;;;;;;;6.60;81.40;;;;;;5044921;28;19929;-72
2022/10/09 03:57:16;;;;;;;;;;;6.60;81.30;;;;;;5043965;28;19975;-69
2022/10/09 03:59:44;;;;;;;;;;;6.50;81.30;;;;;;5036385;28;19924;-72
2022/10/09 04:02:11;;;;;;;;;;;6.50;81.30;;;;;;5027952;28;19932;-72
2022/10/09 04:04:38;;;;;;;;;;;6.50;81.20;;;;;;5032960;28;19925;-72
2022/10/09 04:07:05;;;;;;;;;;;6.50;81.20;;;;;;5036593;28;20013;-72
2022/10/09 04:09:32;;;;;;;;;;;6.50;81.20;;;;;;5040351;28;19925;-71
2022/10/09 04:11:59;;;;;;;;;;;6.40;81.30;;;;;;5041920;28;19924;-73
2022/10/09 04:14:25;;;;;;;;;;;6.40;81.40;;;;;;5042132;28;19964;-73
2022/10/09 04:16:54;;;;;;;;;;;6.40;81.30;;;;;;5043574;28;19925;-73
2022/10/09 04:19:20;;;;;;;;;;;6.40;81.20;;;;;;5040475;28;20024;-72
2022/10/09 04:21:47;;;;;;;;;;;6.40;81.20;;;;;;5039612;28;19933;-71
2022/10/09 04:24:17;;;;;;;;;;;6.50;81.20;;;;;;5040390;28;20184;-73
2022/10/09 04:26:43;;;;;;;;;;;6.40;81.10;;;;;;5036207;28;20021;-72
2022/10/09 04:29:10;;;;;;;;;;;6.40;81.10;;;;;;5038382;28;20404;-72
2022/10/09 04:31:37;;;;;;;;;;;6.40;81.10;;;;;;5041323;28;19935;-74
2022/10/09 04:34:05;;;;;;;;;;;6.40;81.10;;;;;;5042545;28;20322;-74
2022/10/09 04:36:32;;;;;;;;;;;6.40;81.10;;;;;;5037580;28;19924;-76
2022/10/09 04:38:59;;;;;;;;;;;6.40;81.10;;;;;;5042202;28;19924;-72
2022/10/09 04:41:26;;;;;;;;;;;6.30;81.10;;;;;;5041736;28;20306;-73
2022/10/09 04:43:54;;;;;;;;;;;6.30;81.20;;;;;;5043110;28;19932;-73
2022/10/09 04:46:21;;;;;;;;;;;6.30;81.10;;;;;;5044421;28;19962;-74
2022/10/09 04:48:48;;;;;;;;;;;6.30;80.90;;;;;;5037196;28;19936;-73
2022/10/09 04:51:16;;;;;;;;;;;6.20;81.00;;;;;;5037629;28;19929;-73
2022/10/09 04:53:44;;;;;;;;;;;6.20;81.20;;;;;;5043771;28;19952;-72
2022/10/09 04:56:12;;;;;;;;;;;6.20;81.10;;;;;;5025334;28;20023;-73
2022/10/09 04:58:39;;;;;;;;;;;6.20;81.30;;;;;;5045901;28;19933;-72
2022/10/09 05:01:07;;;;;;;;;;;6.20;81.30;;;;;;5040474;28;20310;-72
2022/10/09 05:03:34;;;;;;;;;;;6.10;81.30;;;;;;5044456;28;19935;-72
2022/10/09 05:06:01;;;;;;;;;;;6.10;81.30;;;;;;5019915;28;19936;-75
2022/10/09 05:08:30;;;;;;;;;;;6.10;81.30;;;;;;5015141;28;20045;-73
2022/10/09 05:10:59;;;;;;;;;;;6.10;81.30;;;;;;5025251;28;19933;-73
2022/10/09 05:13:26;;;;;;;;;;;6.10;81.30;;;;;;5019770;28;19930;-73
2022/10/09 05:15:54;;;;;;;;;;;6.00;81.40;;;;;;5016600;28;20007;-73
2022/10/09 05:18:21;;;;;;;;;;;6.00;81.40;;;;;;5023789;28;20489;-71
2022/10/09 05:20:48;;;;;;;;;;;6.00;81.40;;;;;;5017580;28;19932;-73
2022/10/09 05:23:14;;;;;;;;;;;6.00;81.20;;;;;;5020553;28;19976;-73
2022/10/09 05:25:42;;;;;;;;;;;6.00;81.00;;;;;;5023202;28;19962;-73
2022/10/09 05:28:09;;;;;;;;;;;6.00;81.00;;;;;;5001470;28;19925;-72
2022/10/09 05:30:39;;;;;;;;;;;5.90;81.00;;;;;;5026910;28;19936;-73
2022/10/09 05:33:06;;;;;;;;;;;5.90;81.20;;;;;;5019203;28;19930;-72
2022/10/09 05:35:33;;;;;;;;;;;5.90;81.20;;;;;;5033653;28;19928;-72
2022/10/09 05:37:59;;;;;;;;;;;5.90;81.20;;;;;;5044619;28;19978;-71
2022/10/09 05:40:26;;;;;;;;;;;5.90;81.10;;;;;;5040092;28;19925;-72
2022/10/09 05:42:54;;;;;;;;;;;5.90;81.20;;;;;;5044483;28;19924;-73
2022/10/09 05:45:21;;;;;;;;;;;5.90;81.20;;;;;;5034247;28;19925;-73
2022/10/09 05:47:48;;;;;;;;;;;5.90;81.10;;;;;;5047352;28;19995;-73
2022/10/09 05:50:15;;;;;;;;;;;5.80;81.10;;;;;;5039588;28;19925;-73
2022/10/09 05:52:41;;;;;;;;;;;5.90;80.90;;;;;;5045105;28;19929;-72
2022/10/09 05:55:08;;;;;;;;;;;5.90;81.10;;;;;;5032606;28;19932;-72
2022/10/09 05:57:35;;;;;;;;;;;5.90;81.00;;;;;;5043594;28;19933;-72
2022/10/09 06:00:04;;;;;;;;;;;5.90;80.70;;;;;;5037914;28;20039;-73
2022/10/09 06:02:39;;;;;;;;;;;5.90;80.50;;;;;;5039364;28;20337;-73
2022/10/09 06:05:06;;;;;;;;;;;6.00;80.50;;;;;;5035913;28;19975;-73
2022/10/09 06:07:32;;;;;;;;;;;6.00;80.70;;;;;;5038281;28;19940;-74
2022/10/09 06:09:59;;;;;;;;;;;6.10;80.70;;;;;;5040808;28;20023;-73
2022/10/09 06:12:26;;;;;;;;;;;6.00;81.00;;;;;;5021940;28;20012;-72
2022/10/09 06:14:53;;;;;;;;;;;6.00;81.30;;;;;;5039648;28;19975;-72
2022/10/09 06:17:21;;;;;;;;;;;5.90;81.50;;;;;;5040196;28;19939;-74
2022/10/09 06:19:47;;;;;;;;;;;5.90;81.40;;;;;;5028618;28;20299;-73
2022/10/09 06:22:14;;;;;;;;;;;5.90;81.50;;;;;;5047561;28;19931;-73
2022/10/09 06:24:41;;;;;;;;;;;5.90;81.50;;;;;;5039887;28;19936;-71
2022/10/09 06:27:09;;;;;;;;;;;5.90;81.60;;;;;;5033958;28;20305;-72
2022/10/09 06:29:36;;;;;;;;;;;6.00;81.70;;;;;;5049320;28;19931;-72
2022/10/09 06:32:03;;;;;;;;;;;5.90;81.80;;;;;;5042453;28;19925;-72
2022/10/09 06:34:31;;;;;;;;;;;5.90;82.00;;;;;;5039604;28;19936;-73
2022/10/09 06:36:58;;;;;;;;;;;5.90;81.90;;;;;;5049407;28;20003;-72
2022/10/09 06:39:26;;;;;;;;;;;6.00;82.20;;;;;;5028531;28;22258;-72
2022/10/09 06:41:52;;;;;;;;;;;5.90;82.20;;;;;;5023437;28;19940;-73
2022/10/09 06:44:49;;;;;;;;;;;6.00;82.20;;;;;;5036689;28;20502;-71
2022/10/09 06:47:16;;;;;;;;;;;6.10;82.20;;;;;;5040618;28;19925;-72
2022/10/09 06:49:44;;;;;;;;;;;6.10;82.30;;;;;;5039491;28;19925;-73
2022/10/09 06:52:11;;;;;;;;;;;6.10;82.60;;;;;;5038567;28;20161;-72
2022/10/09 06:54:38;;;;;;;;;;;6.10;82.70;;;;;;5037690;28;19978;-72
2022/10/09 06:57:04;;;;;;;;;;;6.10;82.80;;;;;;5044967;28;19929;-71
2022/10/09 06:59:33;;;;;;;;;;;6.10;82.90;;;;;;5037869;28;22472;-72
2022/10/09 07:02:00;;;;;;;;;;;6.20;82.90;;;;;;5036457;28;20451;-73
2022/10/09 07:04:28;;;;;;;;;;;6.20;83.00;;;;;;5038908;28;19924;-73
2022/10/09 07:06:56;;;;;;;;;;;6.20;83.20;;;;;;5040991;28;19933;-72
2022/10/09 07:09:22;;;;;;;;;;;6.20;83.30;;;;;;5041063;28;19925;-72
2022/10/09 07:11:49;;;;;;;;;;;6.30;83.40;;;;;;5045695;28;19932;-74
2022/10/09 07:14:16;;;;;;;;;;;6.30;83.20;;;;;;5039226;28;19925;-73
2022/10/09 07:16:44;;;;;;;;;;;6.40;83.30;;;;;;5043834;28;19933;-73
2022/10/09 07:19:11;;;;;;;;;;;6.40;83.10;;;;;;5043946;28;20295;-72
2022/10/09 07:21:39;;;;;;;;;;;6.40;83.40;;;;;;5046149;28;19935;-73
2022/10/09 07:24:07;;;;;;;;;;;6.50;83.70;;;;;;5042954;28;19928;-71
2022/10/09 07:26:35;;;;;;;;;;;6.50;83.70;;;;;;5037136;28;20276;-73
2022/10/09 07:29:02;;;;;;;;;;;6.60;83.60;;;;;;5043916;28;20429;-72
2022/10/09 07:31:29;;;;;;;;;;;6.70;83.50;;;;;;5041934;28;19940;-73
2022/10/09 07:33:56;;;;;;;;;;;6.70;83.40;;;;;;5038414;28;19944;-73
2022/10/09 07:36:23;;;;;;;;;;;6.70;83.20;;;;;;5035799;28;20398;-72
2022/10/09 07:38:50;;;;;;;;;;;6.70;83.30;;;;;;5044077;28;19924;-71
2022/10/09 07:41:19;;;;;;;;;;;6.70;83.60;;;;;;5039182;28;20111;-72
2022/10/09 07:43:46;;;;;;;;;;;6.70;83.90;;;;;;5045889;28;19925;-71
2022/10/09 07:46:13;;;;;;;;;;;6.70;84.30;;;;;;5046385;28;20279;-71
2022/10/09 07:48:40;;;;;;;;;;;6.70;84.20;;;;;;5042936;28;20258;-71
2022/10/09 07:51:07;;;;;;;;;;;6.80;84.50;;;;;;5044432;28;19940;-71
2022/10/09 07:53:34;;;;;;;;;;;6.90;84.10;;;;;;5047617;28;20356;-71
2022/10/09 07:56:01;;;;;;;;;;;6.90;84.30;;;;;;5044797;28;19925;-72
2022/10/09 07:58:29;;;;;;;;;;;6.90;84.40;;;;;;5044005;28;19925;-72
2022/10/09 08:00:55;;;;;;;;;;;6.90;84.80;;;;;;5034770;28;19924;-71
2022/10/09 08:03:22;;;;;;;;;;;7.00;85.30;;;;;;5043141;28;19988;-71
2022/10/09 08:05:56;;;;;;;;;;;7.00;85.60;;;;;;5035454;28;20016;-70
2022/10/09 08:08:23;;;;;;;;;;;7.10;85.90;;;;;;5036406;28;20019;-72
2022/10/09 08:10:50;;;;;;;;;;;7.20;86.20;;;;;;5034934;28;20479;-71
2022/10/09 08:13:17;;;;;;;;;;;7.30;86.50;;;;;;5039634;28;19936;-72
2022/10/09 08:15:45;;;;;;;;;;;7.30;86.40;;;;;;5043565;28;19953;-70
2022/10/09 08:18:12;;;;;;;;;;;7.50;87.00;;;;;;5041814;28;20272;-72
2022/10/09 08:20:39;;;;;;;;;;;7.60;87.10;;;;;;5039310;28;19928;-71
2022/10/09 08:23:06;;;;;;;;;;;7.80;87.20;;;;;;5033667;28;19933;-72
2022/10/09 08:25:34;;;;;;;;;;;8.00;86.70;;;;;;5037538;28;19940;-71
2022/10/09 08:28:03;;;;;;;;;;;8.20;86.70;;;;;;5044724;28;20409;-69
2022/10/09 08:30:30;;;;;;;;;;;8.30;86.50;;;;;;5041798;28;19939;-71
2022/10/09 08:32:59;;;;;;;;;;;8.30;86.20;;;;;;5046182;28;19991;-71
2022/10/09 08:35:26;;;;;;;;;;;8.50;87.00;;;;;;5034097;28;19933;-71
2022/10/09 08:37:53;;;;;;;;;;;8.60;86.70;;;;;;5041844;28;19928;-71
2022/10/09 08:40:25;;;;;;;;;;;8.60;87.00;;;;;;5043005;28;19932;-72
2022/10/09 08:42:55;;;;;;;;;;;8.70;87.00;;;;;;5043680;28;20019;-71
2022/10/09 08:45:22;;;;;;;;;;;9.00;86.90;;;;;;5037029;28;19944;-71
2022/10/09 08:47:50;;;;;;;;;;;9.00;87.10;;;;;;5043240;28;19925;-71
2022/10/09 08:50:21;;;;;;;;;;;9.30;87.00;;;;;;5037556;28;19925;-71
2022/10/09 08:52:52;;;;;;;;;;;9.30;86.90;;;;;;5039777;28;20306;-71
2022/10/09 08:55:21;;;;;;;;;;;9.60;86.90;;;;;;5038159;28;20027;-71
2022/10/09 08:57:50;;;;;;;;;;;9.70;86.70;;;;;;5043428;28;19935;-70
2022/10/09 09:00:18;;;;;;;;;;;9.80;87.00;;;;;;5045032;28;19924;-71
2022/10/09 09:03:12;;;;;;;;;;;9.90;86.50;;;;;;5043591;28;19932;-69
2022/10/09 09:05:45;;;;;;;;;;;10.10;86.70;;;;;;5040597;28;20027;-71
2022/10/09 09:08:17;;;;;;;;;;;10.20;86.60;;;;;;5041101;28;20405;-71
2022/10/09 09:10:47;;;;;;;;;;;10.40;86.40;;;;;;5037931;28;19952;-70
2022/10/09 09:13:23;;;;;;;;;;;10.50;86.40;;;;;;5032220;28;19948;-72
2022/10/09 09:15:54;;;;;;;;;;;10.70;86.20;;;;;;5036678;28;19931;-71
2022/10/09 09:18:29;;;;;;;;;;;10.80;85.80;;;;;;5037099;28;20340;-71
2022/10/09 09:20:58;;;;;;;;;;;11.00;85.50;;;;;;5041739;28;20013;-72
2022/10/09 09:23:27;;;;;;;;;;;11.10;85.50;;;;;;5033922;28;19979;-70
2022/10/09 09:25:55;;;;;;;;;;;11.10;85.10;;;;;;5020232;28;19940;-70
2022/10/09 09:28:24;;;;;;;;;;;11.30;84.60;;;;;;5012219;28;19936;-71
2022/10/09 09:30:54;;;;;;;;;;;11.40;84.60;;;;;;5027016;28;20375;-71
2022/10/09 09:33:24;;;;;;;;;;;11.50;84.00;;;;;;5040833;28;19988;-72
2022/10/09 09:35:52;;;;;;;;;;;11.70;83.80;;;;;;5037016;28;20397;-72
2022/10/09 09:38:20;;;;;;;;;;;11.80;83.40;;;;;;5040159;28;20371;-71
2022/10/09 09:40:47;;;;;;;;;;;11.90;83.30;;;;;;5039351;28;19929;-70
2022/10/09 09:43:16;;;;;;;;;;;12.00;83.40;;;;;;5039468;28;19939;-70
2022/10/09 09:45:43;;;;;;;;;;;12.10;83.10;;;;;;5020529;28;19932;-71
2022/10/09 09:48:12;;;;;;;;;;;12.30;81.90;;;;;;5044791;28;19982;-70
2022/10/09 09:50:42;;;;;;;;;;;12.40;81.70;;;;;;5040750;28;19924;-72
2022/10/09 09:53:14;;;;;;;;;;;12.50;81.00;;;;;;5035273;28;19980;-71
2022/10/09 09:55:42;;;;;;;;;;;12.60;79.30;;;;;;5039214;28;20283;-72
2022/10/09 09:58:14;;;;;;;;;;;12.60;79.80;;;;;;5040996;28;20298;-70
2022/10/09 10:00:41;;;;;;;;;;;12.70;79.60;;;;;;5035913;28;20306;-73
2022/10/09 10:03:12;;;;;;;;;;;12.80;79.40;;;;;;5032393;28;19928;-70
2022/10/09 10:05:43;;;;;;;;;;;12.90;79.20;;;;;;5010761;28;20222;-69
2022/10/09 10:08:13;;;;;;;;;;;13.00;78.90;;;;;;5044021;28;19949;-70
2022/10/09 10:10:46;;;;;;;;;;;13.10;78.90;;;;;;5042467;28;20479;-71
2022/10/09 10:13:15;;;;;;;;;;;13.10;78.00;;;;;;5026899;28;19935;-71
2022/10/09 10:15:48;;;;;;;;;;;13.20;77.20;;;;;;5015918;28;19925;-71
2022/10/09 10:18:16;;;;;;;;;;;13.20;76.10;;;;;;5023749;28;20303;-71
2022/10/09 10:20:43;;;;;;;;;;;13.20;76.30;;;;;;5016376;28;19934;-71
2022/10/09 10:23:20;;;;;;;;;;;13.40;77.00;;;;;;5032722;28;19935;-71
2022/10/09 10:25:50;;;;;;;;;;;13.50;76.20;;;;;;5041612;28;20393;-72
2022/10/09 10:28:20;;;;;;;;;;;13.60;76.10;;;;;;5029463;28;19928;-70
2022/10/09 10:30:48;;;;;;;;;;;13.60;76.70;;;;;;5038185;28;20310;-71
2022/10/09 10:33:18;;;;;;;;;;;13.60;75.80;;;;;;5041292;28;19932;-72
2022/10/09 10:35:45;;;;;;;;;;;13.70;75.20;;;;;;5037373;28;19924;-70
2022/10/09 10:38:13;;;;;;;;;;;13.70;74.20;;;;;;5040117;28;19925;-70
2022/10/09 10:40:42;;;;;;;;;;;13.80;74.20;;;;;;5037659;28;19925;-71
2022/10/09 10:43:24;;;;;;;;;;;13.80;73.60;;;;;;5028487;28;19933;-72
2022/10/09 10:45:58;;;;;;;;;;;13.90;74.40;;;;;;5034978;28;19933;-71
2022/10/09 10:48:25;;;;;;;;;;;13.90;74.00;;;;;;5038576;28;19925;-70
2022/10/09 10:50:58;;;;;;;;;;;14.00;73.90;;;;;;5042288;28;20310;-70
2022/10/09 10:53:32;;;;;;;;;;;14.00;73.50;;;;;;5041154;28;19929;-71
2022/10/09 10:56:02;;;;;;;;;;;14.10;73.70;;;;;;5039908;28;20027;-72
2022/10/09 10:58:31;;;;;;;;;;;14.10;72.30;;;;;;5037561;28;19941;-70
2022/10/09 11:01:11;;;;;;;;;;;14.10;71.90;;;;;;5043263;28;19979;-71
2022/10/09 11:03:43;;;;;;;;;;;14.10;71.80;;;;;;5023291;28;20473;-71
2022/10/09 11:06:14;;;;;;;;;;;14.20;72.10;;;;;;5040924;28;19925;-71
2022/10/09 11:08:53;;;;;;;;;;;14.30;70.70;;;;;;5043321;28;19939;-71
2022/10/09 11:11:23;;;;;;;;;;;14.30;70.00;;;;;;5045302;28;19933;-71
2022/10/09 11:13:55;;;;;;;;;;;14.30;70.30;;;;;;5045662;28;19949;-71
2022/10/09 11:16:28;;;;;;;;;;;14.30;69.90;;;;;;5022734;28;19924;-72
2022/10/09 11:19:11;;;;;;;;;;;14.40;69.10;;;;;;5043151;28;20323;-71
2022/10/09 11:21:47;;;;;;;;;;;14.40;67.80;;;;;;5033184;28;19929;-70
2022/10/09 11:24:36;;;;;;;;;;;14.40;67.90;;;;;;5037897;28;19935;-71
2022/10/09 11:27:09;;;;;;;;;;;14.50;67.40;;;;;;5044445;28;19925;-71
2022/10/09 11:29:40;;;;;;;;;;;14.50;67.60;;;;;;5045095;28;20302;-72
2022/10/09 11:32:12;;;;;;;;;;;14.50;65.60;;;;;;5042422;28;19940;-72
2022/10/09 11:34:41;;;;;;;;;;;14.50;65.50;;;;;;5045560;28;19928;-72
2022/10/09 11:37:11;;;;;;;;;;;14.50;64.60;;;;;;5031763;28;19925;-73
2022/10/09 11:39:39;;;;;;;;;;;14.50;64.80;;;;;;5042203;28;20386;-71
2022/10/09 11:42:06;;;;;;;;;;;14.50;63.40;;;;;;5036516;28;19928;-71
2022/10/09 11:44:37;;;;;;;;;;;14.50;63.80;;;;;;5045882;28;19935;-72
2022/10/09 11:47:09;;;;;;;;;;;14.60;64.00;;;;;;5042953;28;19931;-71
2022/10/09 11:49:39;;;;;;;;;;;14.50;64.90;;;;;;5041119;28;20145;-72
2022/10/09 11:52:10;;;;;;;;;;;14.50;64.80;;;;;;5037225;28;19939;-73
2022/10/09 11:54:37;;;;;;;;;;;14.50;65.10;;;;;;5043269;28;19954;-73
2022/10/09 11:57:04;;;;;;;;;;;14.50;65.80;;;;;;5048058;28;20022;-72
2022/10/09 11:59:35;;;;;;;;;;;14.50;64.70;;;;;;5036454;28;19931;-72
2022/10/09 12:02:13;;;;;;;;;;;14.50;64.70;;;;;;5047476;28;19925;-72
2022/10/09 12:04:42;;;;;;;;;;;14.50;64.60;;;;;;5026927;28;19933;-73
2022/10/09 12:07:10;;;;;;;;;;;14.50;65.20;;;;;;5043107;28;19935;-73
2022/10/09 12:09:38;;;;;;;;;;;14.50;65.60;;;;;;5046132;28;20290;-73
2022/10/09 12:12:06;;;;;;;;;;;14.50;65.30;;;;;;5042014;28;19944;-73
2022/10/09 12:14:35;;;;;;;;;;;14.50;65.30;;;;;;5035890;28;20398;-72
2022/10/09 12:17:14;;;;;;;;;;;14.50;65.30;;;;;;5045008;28;19976;-73
2022/10/09 12:19:42;;;;;;;;;;;14.50;65.40;;;;;;5037358;28;20311;-72
2022/10/09 12:22:13;;;;;;;;;;;14.50;64.90;;;;;;5043038;28;20287;-73
2022/10/09 12:24:42;;;;;;;;;;;14.50;65.60;;;;;;5039521;28;19976;-74
2022/10/09 12:27:16;;;;;;;;;;;14.60;66.10;;;;;;5017079;28;19929;-75
2022/10/09 12:29:45;;;;;;;;;;;14.60;66.30;;;;;;5044688;28;19925;-74
2022/10/09 12:32:15;;;;;;;;;;;14.60;65.40;;;;;;5038023;28;19933;-72
2022/10/09 12:34:45;;;;;;;;;;;14.60;65.30;;;;;;5044677;28;19925;-72
2022/10/09 12:37:12;;;;;;;;;;;14.60;65.10;;;;;;5040747;28;19928;-74
2022/10/09 12:39:39;;;;;;;;;;;14.60;64.50;;;;;;5036811;28;19929;-73
2022/10/09 12:42:09;;;;;;;;;;;14.60;65.00;;;;;;5041253;28;20007;-73
2022/10/09 12:44:38;;;;;;;;;;;14.50;64.80;;;;;;5043566;28;19933;-74
2022/10/09 12:47:07;;;;;;;;;;;14.50;65.40;;;;;;5041570;28;19952;-73
2022/10/09 12:49:34;;;;;;;;;;;14.60;64.30;;;;;;5040418;28;20010;-73
2022/10/09 12:52:02;;;;;;;;;;;14.50;64.90;;;;;;5039779;28;19925;-72
2022/10/09 12:54:30;;;;;;;;;;;14.50;65.60;;;;;;5045801;28;19971;-73
2022/10/09 12:56:57;;;;;;;;;;;14.50;65.30;;;;;;5039216;28;20421;-74
2022/10/09 12:59:26;;;;;;;;;;;14.50;64.60;;;;;;5045493;28;19936;-73
2022/10/09 13:01:55;;;;;;;;;;;14.50;64.90;;;;;;5039511;28;19932;-73
2022/10/09 13:04:27;;;;;;;;;;;14.50;64.90;;;;;;5035731;28;19956;-74
2022/10/09 13:06:55;;;;;;;;;;;14.50;63.30;;;;;;5034245;28;19924;-73
2022/10/09 13:09:25;;;;;;;;;;;14.50;62.20;;;;;;5039968;28;19929;-72
2022/10/09 13:11:54;;;;;;;;;;;14.50;61.70;;;;;;5044713;28;19929;-73
2022/10/09 13:14:24;;;;;;;;;;;14.40;63.10;;;;;;5037363;28;19933;-71
2022/10/09 13:16:55;;;;;;;;;;;14.40;62.80;;;;;;5042050;28;19932;-72
2022/10/09 13:19:24;;;;;;;;;;;14.40;63.50;;;;;;5039922;28;19933;-73
2022/10/09 13:22:07;;;;;;;;;;;14.40;62.80;;;;;;5036808;28;19948;-72
2022/10/09 13:24:35;;;;;;;;;;;14.30;63.40;;;;;;5017869;28;19936;-73
2022/10/09 13:27:03;;;;;;;;;;;14.30;62.40;;;;;;5020490;28;19929;-71
2022/10/09 13:29:30;;;;;;;;;;;14.30;62.20;;;;;;5023426;28;19936;-74
2022/10/09 13:31:56;;;;;;;;;;;14.30;62.00;;;;;;5021739;28;19933;-72
2022/10/09 13:34:23;;;;;;;;;;;14.30;63.50;;;;;;5038132;28;19932;-73
2022/10/09 13:36:50;;;;;;;;;;;14.30;62.80;;;;;;5036959;28;20019;-72
2022/10/09 13:39:17;;;;;;;;;;;14.30;62.90;;;;;;5034623;28;19931;-74
2022/10/09 13:41:48;;;;;;;;;;;14.20;64.00;;;;;;5039253;28;19963;-73
2022/10/09 13:44:15;;;;;;;;;;;14.20;63.70;;;;;;5036616;28;19932;-72
2022/10/09 13:46:42;;;;;;;;;;;14.20;64.40;;;;;;5030200;28;19933;-72
2022/10/09 13:49:08;;;;;;;;;;;14.20;63.00;;;;;;5038416;28;19949;-75
2022/10/09 13:51:35;;;;;;;;;;;14.20;63.10;;;;;;5039786;28;20353;-72
2022/10/09 13:54:02;;;;;;;;;;;14.20;62.50;;;;;;5043000;28;19929;-72
2022/10/09 13:56:29;;;;;;;;;;;14.30;63.30;;;;;;5039580;28;20036;-73
2022/10/09 13:58:57;;;;;;;;;;;14.20;63.90;;;;;;5040236;28;19948;-74
2022/10/09 14:01:24;;;;;;;;;;;14.20;63.50;;;;;;5017731;28;20023;-74
2022/10/09 14:03:51;;;;;;;;;;;14.20;63.00;;;;;;5020072;28;20405;-72
2022/10/09 14:06:17;;;;;;;;;;;14.20;64.70;;;;;;5021048;28;19926;-74
2022/10/09 14:08:44;;;;;;;;;;;14.20;64.40;;;;;;5038712;28;20024;-72
2022/10/09 14:11:12;;;;;;;;;;;14.20;64.80;;;;;;5043609;28;20278;-72
2022/10/09 14:13:38;;;;;;;;;;;14.20;64.30;;;;;;5044228;28;20388;-72
2022/10/09 14:16:07;;;;;;;;;;;14.20;64.50;;;;;;5046586;28;19932;-73
2022/10/09 14:18:34;;;;;;;;;;;14.20;64.10;;;;;;5029033;28;19961;-74
2022/10/09 14:21:00;;;;;;;;;;;14.20;64.40;;;;;;5043680;28;19924;-73
2022/10/09 14:23:28;;;;;;;;;;;14.20;65.20;;;;;;5037549;28;19925;-72
2022/10/09 14:25:54;;;;;;;;;;;14.20;64.20;;;;;;5045689;28;20293;-72
2022/10/09 14:28:21;;;;;;;;;;;14.20;64.60;;;;;;5044513;28;20379;-72
2022/10/09 14:30:48;;;;;;;;;;;14.20;65.10;;;;;;5045055;28;20322;-71
2022/10/09 14:33:16;;;;;;;;;;;14.20;65.10;;;;;;5046139;28;19931;-70
2022/10/09 14:35:43;;;;;;;;;;;14.20;64.40;;;;;;5039203;28;20028;-73